sensor_id;sensor_type;location;lat;lon;timestamp;P1;durP1;ratioP1;P2;durP2;ratioP2
58260;SDS011;44058;52.898;6.502;2022-09-17T00:00:39;13.07;;;3.40;;
58260;SDS011;44058;52.898;6.502;2022-09-17T00:03:09;15.13;;;3.65;;
58260;SDS011;44058;52.898;6.502;2022-09-17T00:05:35;11.13;;;3.38;;
58260;SDS011;44058;52.898;6.502;2022-09-17T00:08:03;14.35;;;3.25;;
58260;SDS011;44058;52.898;6.502;2022-09-17T00:10:30;13.52;;;3.03;;
58260;SDS011;44058;52.898;6.502;2022-09-17T00:12:56;12.93;;;3.60;;
58260;SDS011;44058;52.898;6.502;2022-09-17T00:15:23;16.33;;;3.47;;
58260;SDS011;44058;52.898;6.502;2022-09-17T00:17:53;14.35;;;3.30;;
58260;SDS011;44058;52.898;6.502;2022-09-17T00:20:21;14.32;;;3.83;;
58260;SDS011;44058;52.898;6.502;2022-09-17T00:22:47;11.60;;;3.15;;
58260;SDS011;44058;52.898;6.502;2022-09-17T00:25:13;13.90;;;3.58;;
58260;SDS011;44058;52.898;6.502;2022-09-17T00:27:39;14.30;;;3.45;;
58260;SDS011;44058;52.898;6.502;2022-09-17T00:30:05;14.13;;;3.15;;
58260;SDS011;44058;52.898;6.502;2022-09-17T00:32:31;16.02;;;3.58;;
58260;SDS011;44058;52.898;6.502;2022-09-17T00:34:57;16.02;;;4.20;;
58260;SDS011;44058;52.898;6.502;2022-09-17T00:37:22;17.88;;;3.85;;
58260;SDS011;44058;52.898;6.502;2022-09-17T00:39:48;14.23;;;3.13;;
58260;SDS011;44058;52.898;6.502;2022-09-17T00:42:14;9.73;;;3.00;;
58260;SDS011;44058;52.898;6.502;2022-09-17T00:44:42;14.02;;;3.60;;
58260;SDS011;44058;52.898;6.502;2022-09-17T00:47:21;11.90;;;3.10;;
58260;SDS011;44058;52.898;6.502;2022-09-17T00:49:55;16.98;;;3.25;;
58260;SDS011;44058;52.898;6.502;2022-09-17T00:52:27;12.35;;;3.63;;
58260;SDS011;44058;52.898;6.502;2022-09-17T00:55:00;13.43;;;3.03;;
58260;SDS011;44058;52.898;6.502;2022-09-17T00:57:34;11.50;;;3.25;;
58260;SDS011;44058;52.898;6.502;2022-09-17T01:00:00;9.82;;;3.13;;
58260;SDS011;44058;52.898;6.502;2022-09-17T01:02:27;12.30;;;3.42;;
58260;SDS011;44058;52.898;6.502;2022-09-17T01:04:53;14.80;;;3.58;;
58260;SDS011;44058;52.898;6.502;2022-09-17T01:31:06;12.15;;;3.40;;
58260;SDS011;44058;52.898;6.502;2022-09-17T01:36:19;14.18;;;3.60;;
58260;SDS011;44058;52.898;6.502;2022-09-17T01:41:45;14.75;;;3.70;;
58260;SDS011;44058;52.898;6.502;2022-09-17T01:44:34;10.75;;;2.85;;
58260;SDS011;44058;52.898;6.502;2022-09-17T01:47:23;11.85;;;3.38;;
58260;SDS011;44058;52.898;6.502;2022-09-17T01:49:56;11.50;;;3.13;;
58260;SDS011;44058;52.898;6.502;2022-09-17T01:52:27;13.75;;;3.53;;
58260;SDS011;44058;52.898;6.502;2022-09-17T01:54:56;12.18;;;2.63;;
58260;SDS011;44058;52.898;6.502;2022-09-17T01:59:59;10.75;;;3.08;;
58260;SDS011;44058;52.898;6.502;2022-09-17T02:02:30;12.93;;;2.97;;
58260;SDS011;44058;52.898;6.502;2022-09-17T02:05:02;9.45;;;3.15;;
58260;SDS011;44058;52.898;6.502;2022-09-17T02:07:29;10.82;;;3.03;;
58260;SDS011;44058;52.898;6.502;2022-09-17T02:09:59;10.63;;;2.72;;
58260;SDS011;44058;52.898;6.502;2022-09-17T02:12:36;11.57;;;2.65;;
58260;SDS011;44058;52.898;6.502;2022-09-17T02:15:09;13.43;;;2.83;;
58260;SDS011;44058;52.898;6.502;2022-09-17T02:17:42;10.45;;;2.90;;
58260;SDS011;44058;52.898;6.502;2022-09-17T02:20:13;14.70;;;2.95;;
58260;SDS011;44058;52.898;6.502;2022-09-17T02:22:52;11.98;;;3.03;;
58260;SDS011;44058;52.898;6.502;2022-09-17T02:28:15;13.65;;;3.30;;
58260;SDS011;44058;52.898;6.502;2022-09-17T02:30:49;16.63;;;3.38;;
58260;SDS011;44058;52.898;6.502;2022-09-17T02:33:15;12.48;;;2.85;;
58260;SDS011;44058;52.898;6.502;2022-09-17T02:35:42;12.68;;;3.13;;
58260;SDS011;44058;52.898;6.502;2022-09-17T02:38:10;10.38;;;2.53;;
58260;SDS011;44058;52.898;6.502;2022-09-17T02:43:59;10.65;;;3.00;;
58260;SDS011;44058;52.898;6.502;2022-09-17T02:46:50;13.77;;;3.10;;
58260;SDS011;44058;52.898;6.502;2022-09-17T02:49:56;8.85;;;2.40;;
58260;SDS011;44058;52.898;6.502;2022-09-17T02:52:56;11.02;;;2.70;;
58260;SDS011;44058;52.898;6.502;2022-09-17T02:55:40;11.35;;;3.03;;
58260;SDS011;44058;52.898;6.502;2022-09-17T02:58:31;10.70;;;2.80;;
58260;SDS011;44058;52.898;6.502;2022-09-17T03:01:39;8.75;;;2.70;;
58260;SDS011;44058;52.898;6.502;2022-09-17T03:04:12;12.38;;;3.10;;
58260;SDS011;44058;52.898;6.502;2022-09-17T03:06:41;11.07;;;2.47;;
58260;SDS011;44058;52.898;6.502;2022-09-17T03:09:10;11.07;;;2.40;;
58260;SDS011;44058;52.898;6.502;2022-09-17T03:11:35;11.77;;;2.80;;
58260;SDS011;44058;52.898;6.502;2022-09-17T03:14:01;7.80;;;2.33;;
58260;SDS011;44058;52.898;6.502;2022-09-17T03:16:28;10.32;;;2.72;;
58260;SDS011;44058;52.898;6.502;2022-09-17T03:18:54;7.28;;;2.45;;
58260;SDS011;44058;52.898;6.502;2022-09-17T03:21:20;9.60;;;2.50;;
58260;SDS011;44058;52.898;6.502;2022-09-17T03:23:46;6.80;;;1.83;;
58260;SDS011;44058;52.898;6.502;2022-09-17T03:26:12;8.52;;;2.55;;
58260;SDS011;44058;52.898;6.502;2022-09-17T03:28:37;11.30;;;2.85;;
58260;SDS011;44058;52.898;6.502;2022-09-17T03:31:03;8.38;;;2.47;;
58260;SDS011;44058;52.898;6.502;2022-09-17T03:33:30;8.80;;;2.28;;
58260;SDS011;44058;52.898;6.502;2022-09-17T03:35:56;8.75;;;2.17;;
58260;SDS011;44058;52.898;6.502;2022-09-17T03:38:21;8.93;;;2.03;;
58260;SDS011;44058;52.898;6.502;2022-09-17T03:40:57;8.35;;;2.05;;
58260;SDS011;44058;52.898;6.502;2022-09-17T03:43:27;6.78;;;1.88;;
58260;SDS011;44058;52.898;6.502;2022-09-17T03:45:53;7.60;;;2.03;;
58260;SDS011;44058;52.898;6.502;2022-09-17T03:48:20;8.93;;;2.30;;
58260;SDS011;44058;52.898;6.502;2022-09-17T03:50:47;8.88;;;2.03;;
58260;SDS011;44058;52.898;6.502;2022-09-17T03:53:12;8.88;;;2.38;;
58260;SDS011;44058;52.898;6.502;2022-09-17T03:55:38;9.00;;;2.42;;
58260;SDS011;44058;52.898;6.502;2022-09-17T03:58:04;8.13;;;1.90;;
58260;SDS011;44058;52.898;6.502;2022-09-17T04:00:30;10.85;;;2.60;;
58260;SDS011;44058;52.898;6.502;2022-09-17T04:02:56;10.70;;;2.70;;
58260;SDS011;44058;52.898;6.502;2022-09-17T04:05:22;10.23;;;2.28;;
58260;SDS011;44058;52.898;6.502;2022-09-17T04:07:48;9.88;;;2.30;;
58260;SDS011;44058;52.898;6.502;2022-09-17T04:10:13;10.32;;;2.60;;
58260;SDS011;44058;52.898;6.502;2022-09-17T04:12:40;9.05;;;2.45;;
58260;SDS011;44058;52.898;6.502;2022-09-17T04:15:06;7.18;;;1.95;;
58260;SDS011;44058;52.898;6.502;2022-09-17T04:17:32;8.05;;;2.22;;
58260;SDS011;44058;52.898;6.502;2022-09-17T04:19:58;10.10;;;2.60;;
58260;SDS011;44058;52.898;6.502;2022-09-17T04:22:24;9.23;;;2.58;;
58260;SDS011;44058;52.898;6.502;2022-09-17T04:24:50;8.88;;;2.47;;
58260;SDS011;44058;52.898;6.502;2022-09-17T04:27:16;11.57;;;2.53;;
58260;SDS011;44058;52.898;6.502;2022-09-17T04:29:42;11.00;;;2.13;;
58260;SDS011;44058;52.898;6.502;2022-09-17T04:32:07;9.38;;;2.47;;
58260;SDS011;44058;52.898;6.502;2022-09-17T04:34:33;10.25;;;2.80;;
58260;SDS011;44058;52.898;6.502;2022-09-17T04:36:59;12.75;;;2.75;;
58260;SDS011;44058;52.898;6.502;2022-09-17T04:39:25;12.70;;;3.38;;
58260;SDS011;44058;52.898;6.502;2022-09-17T04:41:50;8.27;;;2.10;;
58260;SDS011;44058;52.898;6.502;2022-09-17T04:44:16;12.00;;;2.67;;
58260;SDS011;44058;52.898;6.502;2022-09-17T04:46:42;11.80;;;3.03;;
58260;SDS011;44058;52.898;6.502;2022-09-17T04:49:07;9.60;;;2.47;;
58260;SDS011;44058;52.898;6.502;2022-09-17T04:51:33;8.68;;;2.63;;
58260;SDS011;44058;52.898;6.502;2022-09-17T04:53:59;8.40;;;2.15;;
58260;SDS011;44058;52.898;6.502;2022-09-17T04:56:24;10.90;;;2.88;;
58260;SDS011;44058;52.898;6.502;2022-09-17T04:58:50;11.05;;;2.63;;
58260;SDS011;44058;52.898;6.502;2022-09-17T05:01:16;11.93;;;2.70;;
58260;SDS011;44058;52.898;6.502;2022-09-17T05:03:47;10.07;;;2.97;;
58260;SDS011;44058;52.898;6.502;2022-09-17T05:06:12;10.20;;;2.38;;
58260;SDS011;44058;52.898;6.502;2022-09-17T05:08:38;11.10;;;2.50;;
58260;SDS011;44058;52.898;6.502;2022-09-17T05:11:04;7.53;;;2.20;;
58260;SDS011;44058;52.898;6.502;2022-09-17T05:13:29;8.68;;;2.45;;
58260;SDS011;44058;52.898;6.502;2022-09-17T05:15:55;8.05;;;2.08;;
58260;SDS011;44058;52.898;6.502;2022-09-17T05:18:21;8.02;;;2.67;;
58260;SDS011;44058;52.898;6.502;2022-09-17T05:20:48;10.10;;;2.70;;
58260;SDS011;44058;52.898;6.502;2022-09-17T05:23:13;12.55;;;2.95;;
58260;SDS011;44058;52.898;6.502;2022-09-17T05:25:39;8.27;;;2.08;;
58260;SDS011;44058;52.898;6.502;2022-09-17T05:28:05;10.57;;;2.30;;
58260;SDS011;44058;52.898;6.502;2022-09-17T05:30:31;11.80;;;2.85;;
58260;SDS011;44058;52.898;6.502;2022-09-17T05:33:00;7.93;;;2.10;;
58260;SDS011;44058;52.898;6.502;2022-09-17T05:35:28;10.38;;;2.72;;
58260;SDS011;44058;52.898;6.502;2022-09-17T05:38:01;10.45;;;3.28;;
58260;SDS011;44058;52.898;6.502;2022-09-17T05:40:29;9.30;;;2.42;;
58260;SDS011;44058;52.898;6.502;2022-09-17T05:43:00;7.57;;;2.10;;
58260;SDS011;44058;52.898;6.502;2022-09-17T05:45:27;9.23;;;2.38;;
58260;SDS011;44058;52.898;6.502;2022-09-17T05:47:57;9.15;;;2.10;;
58260;SDS011;44058;52.898;6.502;2022-09-17T05:50:24;10.35;;;2.35;;
58260;SDS011;44058;52.898;6.502;2022-09-17T05:52:50;8.23;;;2.45;;
58260;SDS011;44058;52.898;6.502;2022-09-17T05:55:17;9.23;;;2.53;;
58260;SDS011;44058;52.898;6.502;2022-09-17T05:57:44;11.07;;;2.50;;
58260;SDS011;44058;52.898;6.502;2022-09-17T06:00:10;10.20;;;2.08;;
58260;SDS011;44058;52.898;6.502;2022-09-17T06:02:36;9.48;;;2.13;;
58260;SDS011;44058;52.898;6.502;2022-09-17T06:05:02;10.02;;;2.33;;
58260;SDS011;44058;52.898;6.502;2022-09-17T06:07:29;8.85;;;2.35;;
58260;SDS011;44058;52.898;6.502;2022-09-17T06:09:55;12.75;;;2.20;;
58260;SDS011;44058;52.898;6.502;2022-09-17T06:12:21;9.07;;;2.30;;
58260;SDS011;44058;52.898;6.502;2022-09-17T06:14:47;7.75;;;2.10;;
58260;SDS011;44058;52.898;6.502;2022-09-17T06:17:13;8.65;;;2.00;;
58260;SDS011;44058;52.898;6.502;2022-09-17T06:19:38;9.00;;;2.33;;
58260;SDS011;44058;52.898;6.502;2022-09-17T06:22:05;10.98;;;1.92;;
58260;SDS011;44058;52.898;6.502;2022-09-17T06:24:31;8.57;;;1.95;;
58260;SDS011;44058;52.898;6.502;2022-09-17T06:26:56;9.38;;;2.20;;
58260;SDS011;44058;52.898;6.502;2022-09-17T06:29:22;7.38;;;2.03;;
58260;SDS011;44058;52.898;6.502;2022-09-17T06:31:48;7.43;;;1.50;;
58260;SDS011;44058;52.898;6.502;2022-09-17T06:34:14;6.20;;;2.10;;
58260;SDS011;44058;52.898;6.502;2022-09-17T06:36:40;10.98;;;2.65;;
58260;SDS011;44058;52.898;6.502;2022-09-17T06:39:06;11.55;;;2.38;;
58260;SDS011;44058;52.898;6.502;2022-09-17T06:41:32;6.18;;;1.55;;
58260;SDS011;44058;52.898;6.502;2022-09-17T06:43:58;7.47;;;2.25;;
58260;SDS011;44058;52.898;6.502;2022-09-17T06:46:26;9.13;;;1.85;;
58260;SDS011;44058;52.898;6.502;2022-09-17T06:48:52;8.88;;;1.92;;
58260;SDS011;44058;52.898;6.502;2022-09-17T06:51:17;6.68;;;1.88;;
58260;SDS011;44058;52.898;6.502;2022-09-17T06:53:43;8.07;;;1.83;;
58260;SDS011;44058;52.898;6.502;2022-09-17T06:56:09;5.85;;;1.73;;
58260;SDS011;44058;52.898;6.502;2022-09-17T06:58:35;8.90;;;2.10;;
58260;SDS011;44058;52.898;6.502;2022-09-17T07:01:02;6.25;;;1.88;;
58260;SDS011;44058;52.898;6.502;2022-09-17T07:03:29;8.15;;;2.08;;
58260;SDS011;44058;52.898;6.502;2022-09-17T07:05:56;9.40;;;2.30;;
58260;SDS011;44058;52.898;6.502;2022-09-17T07:08:22;6.35;;;1.60;;
58260;SDS011;44058;52.898;6.502;2022-09-17T07:10:48;7.47;;;1.77;;
58260;SDS011;44058;52.898;6.502;2022-09-17T07:13:16;6.95;;;2.00;;
58260;SDS011;44058;52.898;6.502;2022-09-17T07:15:42;5.93;;;1.63;;
58260;SDS011;44058;52.898;6.502;2022-09-17T07:18:10;8.90;;;1.80;;
58260;SDS011;44058;52.898;6.502;2022-09-17T07:20:36;9.32;;;1.80;;
58260;SDS011;44058;52.898;6.502;2022-09-17T07:23:03;6.38;;;1.95;;
58260;SDS011;44058;52.898;6.502;2022-09-17T07:25:29;5.72;;;1.58;;
58260;SDS011;44058;52.898;6.502;2022-09-17T07:27:55;6.85;;;2.03;;
58260;SDS011;44058;52.898;6.502;2022-09-17T07:30:20;6.40;;;1.75;;
58260;SDS011;44058;52.898;6.502;2022-09-17T07:32:46;6.38;;;1.65;;
58260;SDS011;44058;52.898;6.502;2022-09-17T07:35:12;6.88;;;1.75;;
58260;SDS011;44058;52.898;6.502;2022-09-17T07:37:38;8.68;;;1.90;;
58260;SDS011;44058;52.898;6.502;2022-09-17T07:40:04;7.05;;;1.60;;
58260;SDS011;44058;52.898;6.502;2022-09-17T07:42:31;8.32;;;1.80;;
58260;SDS011;44058;52.898;6.502;2022-09-17T07:44:57;6.40;;;1.80;;
58260;SDS011;44058;52.898;6.502;2022-09-17T07:47:23;7.63;;;1.98;;
58260;SDS011;44058;52.898;6.502;2022-09-17T07:49:48;7.00;;;1.67;;
58260;SDS011;44058;52.898;6.502;2022-09-17T07:52:14;4.05;;;1.30;;
58260;SDS011;44058;52.898;6.502;2022-09-17T07:54:40;9.20;;;1.42;;
58260;SDS011;44058;52.898;6.502;2022-09-17T07:57:05;5.68;;;1.50;;
58260;SDS011;44058;52.898;6.502;2022-09-17T07:59:31;5.60;;;1.50;;
58260;SDS011;44058;52.898;6.502;2022-09-17T08:01:57;5.15;;;1.73;;
58260;SDS011;44058;52.898;6.502;2022-09-17T08:04:23;6.57;;;2.00;;
58260;SDS011;44058;52.898;6.502;2022-09-17T08:06:49;6.22;;;1.70;;
58260;SDS011;44058;52.898;6.502;2022-09-17T08:09:15;5.80;;;1.33;;
58260;SDS011;44058;52.898;6.502;2022-09-17T08:11:42;6.35;;;1.40;;
58260;SDS011;44058;52.898;6.502;2022-09-17T08:14:11;6.32;;;1.58;;
58260;SDS011;44058;52.898;6.502;2022-09-17T08:16:39;7.18;;;1.77;;
58260;SDS011;44058;52.898;6.502;2022-09-17T08:19:05;4.30;;;1.30;;
58260;SDS011;44058;52.898;6.502;2022-09-17T08:21:33;3.97;;;1.27;;
58260;SDS011;44058;52.898;6.502;2022-09-17T08:23:59;5.47;;;1.67;;
58260;SDS011;44058;52.898;6.502;2022-09-17T08:26:26;6.45;;;1.83;;
58260;SDS011;44058;52.898;6.502;2022-09-17T08:28:52;4.70;;;1.30;;
58260;SDS011;44058;52.898;6.502;2022-09-17T08:31:20;5.90;;;1.20;;
58260;SDS011;44058;52.898;6.502;2022-09-17T08:33:48;8.30;;;1.42;;
58260;SDS011;44058;52.898;6.502;2022-09-17T08:36:14;4.30;;;1.20;;
58260;SDS011;44058;52.898;6.502;2022-09-17T08:38:41;5.00;;;1.50;;
58260;SDS011;44058;52.898;6.502;2022-09-17T08:43:41;5.95;;;1.55;;
58260;SDS011;44058;52.898;6.502;2022-09-17T08:46:10;4.60;;;1.15;;
58260;SDS011;44058;52.898;6.502;2022-09-17T08:48:40;3.95;;;1.15;;
58260;SDS011;44058;52.898;6.502;2022-09-17T08:51:32;4.30;;;1.40;;
58260;SDS011;44058;52.898;6.502;2022-09-17T08:54:02;6.15;;;1.20;;
58260;SDS011;44058;52.898;6.502;2022-09-17T08:56:39;4.82;;;1.30;;
58260;SDS011;44058;52.898;6.502;2022-09-17T08:59:13;3.90;;;1.25;;
58260;SDS011;44058;52.898;6.502;2022-09-17T09:01:59;6.25;;;1.30;;
58260;SDS011;44058;52.898;6.502;2022-09-17T09:04:57;4.57;;;1.05;;
58260;SDS011;44058;52.898;6.502;2022-09-17T09:07:26;7.47;;;1.80;;
58260;SDS011;44058;52.898;6.502;2022-09-17T09:12:50;3.85;;;1.30;;
58260;SDS011;44058;52.898;6.502;2022-09-17T09:18:05;6.72;;;1.50;;
58260;SDS011;44058;52.898;6.502;2022-09-17T09:20:48;4.32;;;1.30;;
58260;SDS011;44058;52.898;6.502;2022-09-17T09:23:33;3.67;;;1.17;;
58260;SDS011;44058;52.898;6.502;2022-09-17T09:26:11;3.92;;;1.35;;
58260;SDS011;44058;52.898;6.502;2022-09-17T09:28:53;4.18;;;1.23;;
58260;SDS011;44058;52.898;6.502;2022-09-17T09:31:33;7.30;;;1.50;;
58260;SDS011;44058;52.898;6.502;2022-09-17T09:34:20;4.25;;;1.05;;
58260;SDS011;44058;52.898;6.502;2022-09-17T09:36:48;7.03;;;1.83;;
58260;SDS011;44058;52.898;6.502;2022-09-17T09:39:24;5.95;;;1.40;;
58260;SDS011;44058;52.898;6.502;2022-09-17T09:41:57;6.25;;;1.45;;
58260;SDS011;44058;52.898;6.502;2022-09-17T09:44:34;6.75;;;1.40;;
58260;SDS011;44058;52.898;6.502;2022-09-17T10:01:10;4.35;;;1.17;;
58260;SDS011;44058;52.898;6.502;2022-09-17T10:03:43;2.03;;;0.95;;
58260;SDS011;44058;52.898;6.502;2022-09-17T10:06:10;3.58;;;0.80;;
58260;SDS011;44058;52.898;6.502;2022-09-17T10:08:38;3.90;;;1.05;;
58260;SDS011;44058;52.898;6.502;2022-09-17T10:11:15;4.38;;;1.00;;
58260;SDS011;44058;52.898;6.502;2022-09-17T10:13:48;3.25;;;1.23;;
58260;SDS011;44058;52.898;6.502;2022-09-17T10:16:18;5.53;;;1.40;;
58260;SDS011;44058;52.898;6.502;2022-09-17T10:21:33;5.15;;;1.52;;
58260;SDS011;44058;52.898;6.502;2022-09-17T10:26:47;4.60;;;1.15;;
58260;SDS011;44058;52.898;6.502;2022-09-17T10:29:15;5.72;;;1.42;;
58260;SDS011;44058;52.898;6.502;2022-09-17T10:31:53;5.75;;;1.30;;
58260;SDS011;44058;52.898;6.502;2022-09-17T10:36:50;3.13;;;1.00;;
58260;SDS011;44058;52.898;6.502;2022-09-17T10:42:12;4.28;;;1.30;;
58260;SDS011;44058;52.898;6.502;2022-09-17T10:44:42;5.72;;;1.25;;
58260;SDS011;44058;52.898;6.502;2022-09-17T10:49:47;7.93;;;1.70;;
58260;SDS011;44058;52.898;6.502;2022-09-17T10:52:22;4.55;;;1.50;;
58260;SDS011;44058;52.898;6.502;2022-09-17T11:00:33;6.65;;;1.52;;
58260;SDS011;44058;52.898;6.502;2022-09-17T11:06:53;5.13;;;1.80;;
58260;SDS011;44058;52.898;6.502;2022-09-17T11:15:20;12.18;;;2.30;;
58260;SDS011;44058;52.898;6.502;2022-09-17T11:28:58;4.57;;;1.50;;
58260;SDS011;44058;52.898;6.502;2022-09-17T11:37:08;5.22;;;1.30;;
58260;SDS011;44058;52.898;6.502;2022-09-17T11:39:40;6.18;;;1.88;;
58260;SDS011;44058;52.898;6.502;2022-09-17T11:42:13;7.88;;;1.95;;
58260;SDS011;44058;52.898;6.502;2022-09-17T11:44:48;5.22;;;1.55;;
58260;SDS011;44058;52.898;6.502;2022-09-17T11:47:21;5.63;;;1.70;;
58260;SDS011;44058;52.898;6.502;2022-09-17T11:50:01;7.47;;;1.80;;
58260;SDS011;44058;52.898;6.502;2022-09-17T11:52:39;7.40;;;1.48;;
58260;SDS011;44058;52.898;6.502;2022-09-17T11:55:19;4.72;;;1.33;;
58260;SDS011;44058;52.898;6.502;2022-09-17T11:57:59;5.18;;;1.40;;
58260;SDS011;44058;52.898;6.502;2022-09-17T12:00:32;5.05;;;1.10;;
58260;SDS011;44058;52.898;6.502;2022-09-17T12:03:28;7.50;;;1.52;;
58260;SDS011;44058;52.898;6.502;2022-09-17T12:05:58;6.18;;;1.35;;
58260;SDS011;44058;52.898;6.502;2022-09-17T12:08:36;4.32;;;1.42;;
58260;SDS011;44058;52.898;6.502;2022-09-17T12:11:26;4.63;;;1.83;;
58260;SDS011;44058;52.898;6.502;2022-09-17T12:14:04;5.47;;;1.58;;
58260;SDS011;44058;52.898;6.502;2022-09-17T12:16:42;5.78;;;1.50;;
58260;SDS011;44058;52.898;6.502;2022-09-17T12:19:13;6.32;;;1.65;;
58260;SDS011;44058;52.898;6.502;2022-09-17T12:22:05;7.00;;;1.90;;
58260;SDS011;44058;52.898;6.502;2022-09-17T12:24:35;5.15;;;1.40;;
58260;SDS011;44058;52.898;6.502;2022-09-17T12:35:17;9.60;;;2.38;;
58260;SDS011;44058;52.898;6.502;2022-09-17T12:40:20;9.23;;;1.83;;
58260;SDS011;44058;52.898;6.502;2022-09-17T12:43:00;7.78;;;2.20;;
58260;SDS011;44058;52.898;6.502;2022-09-17T12:48:43;9.43;;;2.50;;
58260;SDS011;44058;52.898;6.502;2022-09-17T12:51:21;5.75;;;1.48;;
58260;SDS011;44058;52.898;6.502;2022-09-17T12:54:03;6.13;;;1.60;;
58260;SDS011;44058;52.898;6.502;2022-09-17T12:59:15;7.63;;;2.03;;
58260;SDS011;44058;52.898;6.502;2022-09-17T13:01:49;8.18;;;2.08;;
58260;SDS011;44058;52.898;6.502;2022-09-17T13:07:22;9.43;;;2.60;;
58260;SDS011;44058;52.898;6.502;2022-09-17T13:10:17;7.05;;;2.13;;
58260;SDS011;44058;52.898;6.502;2022-09-17T13:16:10;10.00;;;3.17;;
58260;SDS011;44058;52.898;6.502;2022-09-17T13:21:16;7.65;;;2.85;;
58260;SDS011;44058;52.898;6.502;2022-09-17T13:23:49;10.70;;;2.90;;
58260;SDS011;44058;52.898;6.502;2022-09-17T13:26:17;9.50;;;2.00;;
58260;SDS011;44058;52.898;6.502;2022-09-17T13:28:48;9.73;;;2.70;;
58260;SDS011;44058;52.898;6.502;2022-09-17T13:34:01;9.32;;;2.40;;
58260;SDS011;44058;52.898;6.502;2022-09-17T13:36:37;11.50;;;3.05;;
58260;SDS011;44058;52.898;6.502;2022-09-17T13:39:06;9.15;;;2.17;;
58260;SDS011;44058;52.898;6.502;2022-09-17T13:41:35;7.18;;;2.10;;
58260;SDS011;44058;52.898;6.502;2022-09-17T13:44:04;7.65;;;2.05;;
58260;SDS011;44058;52.898;6.502;2022-09-17T13:46:32;7.47;;;2.00;;
58260;SDS011;44058;52.898;6.502;2022-09-17T13:49:00;8.90;;;1.88;;
58260;SDS011;44058;52.898;6.502;2022-09-17T13:54:00;9.20;;;2.00;;
58260;SDS011;44058;52.898;6.502;2022-09-17T13:56:33;7.80;;;2.08;;
58260;SDS011;44058;52.898;6.502;2022-09-17T13:59:06;6.78;;;2.10;;
58260;SDS011;44058;52.898;6.502;2022-09-17T14:01:54;8.73;;;2.15;;
58260;SDS011;44058;52.898;6.502;2022-09-17T14:09:52;10.63;;;2.60;;
58260;SDS011;44058;52.898;6.502;2022-09-17T14:15:07;10.10;;;2.67;;
58260;SDS011;44058;52.898;6.502;2022-09-17T14:18:00;11.63;;;3.00;;
58260;SDS011;44058;52.898;6.502;2022-09-17T14:20:47;10.23;;;2.42;;
58260;SDS011;44058;52.898;6.502;2022-09-17T14:23:13;9.27;;;2.75;;
58260;SDS011;44058;52.898;6.502;2022-09-17T14:25:41;8.90;;;2.13;;
58260;SDS011;44058;52.898;6.502;2022-09-17T14:28:17;6.40;;;1.90;;
58260;SDS011;44058;52.898;6.502;2022-09-17T14:31:12;5.75;;;1.90;;
58260;SDS011;44058;52.898;6.502;2022-09-17T14:33:43;6.07;;;2.00;;
58260;SDS011;44058;52.898;6.502;2022-09-17T14:36:13;6.50;;;1.75;;
58260;SDS011;44058;52.898;6.502;2022-09-17T14:38:43;6.47;;;1.40;;
58260;SDS011;44058;52.898;6.502;2022-09-17T14:43:42;5.40;;;1.30;;
58260;SDS011;44058;52.898;6.502;2022-09-17T14:46:23;5.32;;;1.27;;
58260;SDS011;44058;52.898;6.502;2022-09-17T14:48:53;5.93;;;1.10;;
58260;SDS011;44058;52.898;6.502;2022-09-17T14:56:31;5.93;;;1.75;;
58260;SDS011;44058;52.898;6.502;2022-09-17T14:59:00;5.65;;;1.65;;
58260;SDS011;44058;52.898;6.502;2022-09-17T15:01:29;5.28;;;1.80;;
58260;SDS011;44058;52.898;6.502;2022-09-17T15:06:46;4.90;;;1.52;;
58260;SDS011;44058;52.898;6.502;2022-09-17T15:09:13;6.03;;;1.42;;
58260;SDS011;44058;52.898;6.502;2022-09-17T15:11:41;5.40;;;1.58;;
58260;SDS011;44058;52.898;6.502;2022-09-17T15:14:15;4.55;;;1.60;;
58260;SDS011;44058;52.898;6.502;2022-09-17T15:16:47;5.30;;;1.40;;
58260;SDS011;44058;52.898;6.502;2022-09-17T15:19:21;7.35;;;1.77;;
58260;SDS011;44058;52.898;6.502;2022-09-17T15:21:55;8.18;;;2.15;;
58260;SDS011;44058;52.898;6.502;2022-09-17T15:27:02;5.85;;;1.42;;
58260;SDS011;44058;52.898;6.502;2022-09-17T15:29:34;4.68;;;1.35;;
58260;SDS011;44058;52.898;6.502;2022-09-17T15:32:05;4.93;;;1.60;;
58260;SDS011;44058;52.898;6.502;2022-09-17T15:34:31;3.95;;;1.30;;
58260;SDS011;44058;52.898;6.502;2022-09-17T15:37:30;6.88;;;1.67;;
58260;SDS011;44058;52.898;6.502;2022-09-17T15:39:50;5.07;;;1.23;;
58260;SDS011;44058;52.898;6.502;2022-09-17T15:44:52;9.00;;;1.50;;
58260;SDS011;44058;52.898;6.502;2022-09-17T15:47:48;4.95;;;1.40;;
58260;SDS011;44058;52.898;6.502;2022-09-17T15:50:15;6.05;;;1.50;;
58260;SDS011;44058;52.898;6.502;2022-09-17T15:52:41;5.35;;;1.38;;
58260;SDS011;44058;52.898;6.502;2022-09-17T15:55:30;5.10;;;1.42;;
58260;SDS011;44058;52.898;6.502;2022-09-17T15:57:58;6.10;;;1.80;;
58260;SDS011;44058;52.898;6.502;2022-09-17T16:00:25;7.25;;;1.50;;
58260;SDS011;44058;52.898;6.502;2022-09-17T16:02:51;7.68;;;1.80;;
58260;SDS011;44058;52.898;6.502;2022-09-17T16:07:49;6.28;;;1.60;;
58260;SDS011;44058;52.898;6.502;2022-09-17T16:10:15;6.18;;;1.90;;
58260;SDS011;44058;52.898;6.502;2022-09-17T16:12:41;9.27;;;1.90;;
58260;SDS011;44058;52.898;6.502;2022-09-17T16:15:08;5.63;;;1.73;;
58260;SDS011;44058;52.898;6.502;2022-09-17T16:17:46;12.13;;;2.33;;
58260;SDS011;44058;52.898;6.502;2022-09-17T16:20:16;9.07;;;2.05;;
58260;SDS011;44058;52.898;6.502;2022-09-17T16:22:44;5.93;;;1.88;;
58260;SDS011;44058;52.898;6.502;2022-09-17T16:25:12;11.43;;;2.50;;
58260;SDS011;44058;52.898;6.502;2022-09-17T16:30:17;9.48;;;2.22;;
58260;SDS011;44058;52.898;6.502;2022-09-17T16:32:44;7.95;;;2.25;;
58260;SDS011;44058;52.898;6.502;2022-09-17T16:35:12;7.97;;;1.98;;
58260;SDS011;44058;52.898;6.502;2022-09-17T16:37:38;7.00;;;2.13;;
58260;SDS011;44058;52.898;6.502;2022-09-17T16:40:04;10.50;;;2.33;;
58260;SDS011;44058;52.898;6.502;2022-09-17T16:42:31;8.57;;;2.08;;
58260;SDS011;44058;52.898;6.502;2022-09-17T16:44:56;8.10;;;1.80;;
58260;SDS011;44058;52.898;6.502;2022-09-17T16:47:24;9.20;;;2.30;;
58260;SDS011;44058;52.898;6.502;2022-09-17T16:49:49;9.70;;;2.40;;
58260;SDS011;44058;52.898;6.502;2022-09-17T16:52:15;8.55;;;2.20;;
58260;SDS011;44058;52.898;6.502;2022-09-17T16:54:41;7.78;;;2.15;;
58260;SDS011;44058;52.898;6.502;2022-09-17T16:57:06;9.60;;;2.08;;
58260;SDS011;44058;52.898;6.502;2022-09-17T16:59:32;8.32;;;2.10;;
58260;SDS011;44058;52.898;6.502;2022-09-17T17:01:58;7.65;;;2.08;;
58260;SDS011;44058;52.898;6.502;2022-09-17T17:04:24;8.30;;;2.42;;
58260;SDS011;44058;52.898;6.502;2022-09-17T17:06:52;7.00;;;2.38;;
58260;SDS011;44058;52.898;6.502;2022-09-17T17:09:18;9.20;;;2.40;;
58260;SDS011;44058;52.898;6.502;2022-09-17T17:11:44;12.60;;;2.30;;
58260;SDS011;44058;52.898;6.502;2022-09-17T17:14:09;11.05;;;2.50;;
58260;SDS011;44058;52.898;6.502;2022-09-17T17:16:35;11.68;;;2.33;;
58260;SDS011;44058;52.898;6.502;2022-09-17T17:19:01;8.07;;;2.05;;
58260;SDS011;44058;52.898;6.502;2022-09-17T17:21:27;7.43;;;2.38;;
58260;SDS011;44058;52.898;6.502;2022-09-17T17:23:53;12.27;;;2.55;;
58260;SDS011;44058;52.898;6.502;2022-09-17T17:26:19;9.50;;;2.42;;
58260;SDS011;44058;52.898;6.502;2022-09-17T17:28:45;5.47;;;1.80;;
58260;SDS011;44058;52.898;6.502;2022-09-17T17:31:11;6.15;;;1.95;;
58260;SDS011;44058;52.898;6.502;2022-09-17T17:33:37;10.57;;;2.03;;
58260;SDS011;44058;52.898;6.502;2022-09-17T17:36:03;8.18;;;2.17;;
58260;SDS011;44058;52.898;6.502;2022-09-17T17:38:30;7.00;;;2.08;;
58260;SDS011;44058;52.898;6.502;2022-09-17T17:41:02;6.70;;;1.77;;
58260;SDS011;44058;52.898;6.502;2022-09-17T17:43:36;5.38;;;1.83;;
58260;SDS011;44058;52.898;6.502;2022-09-17T17:46:06;7.82;;;2.05;;